Weather at Tutong Heliport

Public forecast

Using degrees Celsius for public forecast. Weather courtesy of forecast.io.

Closest aviation weather report (METAR) to Tutong Heliport

Closest report is Brunei International Airport, 17.3 nm (32.0 km) ENE. Retrieved 2022/07/01 17:00 UTC (6 minutes ago):

WBSB 011700Z 20002KT 9999 FEW014 BKN140 27/27 Q1007 NOSIG

Closest aviation forecast (TAF) to Tutong Heliport

Closest forecast is Brunei International Airport, 17.3 nm (32.0 km) ENE. Retrieved 2022/07/01 12:15 UTC (5 hours ago):

TAF WBSB 011100Z 0112/0218 24006KT 9999 FEW015 BECMG 0118/0120 16005KT FEW014 BECMG 0200/0202 22007KT FEW015